sensor_id;sensor_type;location;lat;lon;timestamp;P1;durP1;ratioP1;P2;durP2;ratioP2
52468;SDS011;38381;53.688;10.776;2023-04-03T00:02:34;6.63;;;3.63;;
52468;SDS011;38381;53.688;10.776;2023-04-03T00:07:35;4.05;;;3.67;;
52468;SDS011;38381;53.688;10.776;2023-04-03T00:12:35;4.60;;;3.08;;
52468;SDS011;38381;53.688;10.776;2023-04-03T00:17:36;3.33;;;3.03;;
52468;SDS011;38381;53.688;10.776;2023-04-03T00:22:36;4.75;;;2.90;;
52468;SDS011;38381;53.688;10.776;2023-04-03T00:27:37;2.55;;;2.35;;
52468;SDS011;38381;53.688;10.776;2023-04-03T00:32:39;3.35;;;2.95;;
52468;SDS011;38381;53.688;10.776;2023-04-03T00:37:39;3.97;;;2.95;;
52468;SDS011;38381;53.688;10.776;2023-04-03T00:42:40;5.50;;;3.65;;
52468;SDS011;38381;53.688;10.776;2023-04-03T00:47:42;4.43;;;3.65;;
52468;SDS011;38381;53.688;10.776;2023-04-03T00:52:43;3.28;;;3.00;;
52468;SDS011;38381;53.688;10.776;2023-04-03T00:57:46;4.95;;;4.03;;
52468;SDS011;38381;53.688;10.776;2023-04-03T01:02:48;5.13;;;3.55;;
52468;SDS011;38381;53.688;10.776;2023-04-03T01:07:49;3.60;;;2.90;;
52468;SDS011;38381;53.688;10.776;2023-04-03T01:12:52;4.22;;;3.28;;
52468;SDS011;38381;53.688;10.776;2023-04-03T01:17:54;3.88;;;3.03;;
52468;SDS011;38381;53.688;10.776;2023-04-03T01:28:27;3.80;;;3.38;;
52468;SDS011;38381;53.688;10.776;2023-04-03T01:33:30;4.47;;;2.78;;
52468;SDS011;38381;53.688;10.776;2023-04-03T01:38:31;5.75;;;3.20;;
52468;SDS011;38381;53.688;10.776;2023-04-03T01:43:32;3.15;;;2.70;;
52468;SDS011;38381;53.688;10.776;2023-04-03T01:48:33;4.10;;;2.90;;
52468;SDS011;38381;53.688;10.776;2023-04-03T01:53:34;5.47;;;3.22;;
52468;SDS011;38381;53.688;10.776;2023-04-03T01:58:34;3.90;;;3.33;;
52468;SDS011;38381;53.688;10.776;2023-04-03T02:03:35;5.00;;;2.85;;
52468;SDS011;38381;53.688;10.776;2023-04-03T02:08:35;3.42;;;2.95;;
52468;SDS011;38381;53.688;10.776;2023-04-03T02:13:36;4.53;;;3.00;;
52468;SDS011;38381;53.688;10.776;2023-04-03T02:18:37;4.15;;;3.47;;
52468;SDS011;38381;53.688;10.776;2023-04-03T02:23:37;3.47;;;3.20;;
52468;SDS011;38381;53.688;10.776;2023-04-03T02:28:38;4.95;;;3.20;;
52468;SDS011;38381;53.688;10.776;2023-04-03T02:33:39;4.30;;;3.72;;
52468;SDS011;38381;53.688;10.776;2023-04-03T02:38:40;3.65;;;2.80;;
52468;SDS011;38381;53.688;10.776;2023-04-03T02:43:40;3.42;;;2.78;;
52468;SDS011;38381;53.688;10.776;2023-04-03T02:48:41;3.20;;;2.90;;
52468;SDS011;38381;53.688;10.776;2023-04-03T02:53:41;3.30;;;2.85;;
52468;SDS011;38381;53.688;10.776;2023-04-03T02:58:42;3.28;;;2.97;;
52468;SDS011;38381;53.688;10.776;2023-04-03T03:03:43;3.17;;;2.97;;
52468;SDS011;38381;53.688;10.776;2023-04-03T03:08:43;3.58;;;3.10;;
52468;SDS011;38381;53.688;10.776;2023-04-03T03:13:44;6.20;;;3.30;;
52468;SDS011;38381;53.688;10.776;2023-04-03T03:18:44;3.28;;;2.97;;
52468;SDS011;38381;53.688;10.776;2023-04-03T03:23:45;3.60;;;3.05;;
52468;SDS011;38381;53.688;10.776;2023-04-03T03:28:46;3.38;;;3.05;;
52468;SDS011;38381;53.688;10.776;2023-04-03T03:33:46;3.35;;;3.05;;
52468;SDS011;38381;53.688;10.776;2023-04-03T03:38:46;3.70;;;3.40;;
52468;SDS011;38381;53.688;10.776;2023-04-03T03:43:47;3.83;;;3.42;;
52468;SDS011;38381;53.688;10.776;2023-04-03T03:48:47;4.32;;;3.55;;
52468;SDS011;38381;53.688;10.776;2023-04-03T03:53:48;5.18;;;3.78;;
52468;SDS011;38381;53.688;10.776;2023-04-03T03:58:48;4.00;;;3.08;;
52468;SDS011;38381;53.688;10.776;2023-04-03T04:03:49;2.80;;;2.60;;
52468;SDS011;38381;53.688;10.776;2023-04-03T04:08:50;3.05;;;2.75;;
52468;SDS011;38381;53.688;10.776;2023-04-03T04:13:51;3.30;;;2.92;;
52468;SDS011;38381;53.688;10.776;2023-04-03T04:18:51;4.38;;;3.42;;
52468;SDS011;38381;53.688;10.776;2023-04-03T04:23:51;3.72;;;3.10;;
52468;SDS011;38381;53.688;10.776;2023-04-03T04:28:52;6.32;;;5.30;;
52468;SDS011;38381;53.688;10.776;2023-04-03T04:33:52;11.25;;;5.93;;
52468;SDS011;38381;53.688;10.776;2023-04-03T04:38:53;4.20;;;3.80;;
52468;SDS011;38381;53.688;10.776;2023-04-03T04:43:53;4.85;;;3.75;;
52468;SDS011;38381;53.688;10.776;2023-04-03T04:48:54;3.22;;;2.97;;
52468;SDS011;38381;53.688;10.776;2023-04-03T04:53:55;4.32;;;3.92;;
52468;SDS011;38381;53.688;10.776;2023-04-03T04:58:55;6.28;;;3.83;;
52468;SDS011;38381;53.688;10.776;2023-04-03T05:03:55;3.75;;;3.45;;
52468;SDS011;38381;53.688;10.776;2023-04-03T05:08:56;3.90;;;3.10;;
52468;SDS011;38381;53.688;10.776;2023-04-03T05:13:56;4.93;;;3.95;;
52468;SDS011;38381;53.688;10.776;2023-04-03T05:18:57;6.80;;;3.53;;
52468;SDS011;38381;53.688;10.776;2023-04-03T05:23:58;7.43;;;3.15;;
52468;SDS011;38381;53.688;10.776;2023-04-03T05:28:59;4.78;;;3.20;;
52468;SDS011;38381;53.688;10.776;2023-04-03T05:34:00;4.75;;;3.40;;
52468;SDS011;38381;53.688;10.776;2023-04-03T05:39:00;3.58;;;3.28;;
52468;SDS011;38381;53.688;10.776;2023-04-03T05:44:01;4.05;;;2.80;;
52468;SDS011;38381;53.688;10.776;2023-04-03T05:49:01;5.53;;;4.10;;
52468;SDS011;38381;53.688;10.776;2023-04-03T05:54:12;3.70;;;3.40;;
52468;SDS011;38381;53.688;10.776;2023-04-03T05:59:14;8.43;;;4.35;;
52468;SDS011;38381;53.688;10.776;2023-04-03T06:04:15;5.60;;;3.90;;
52468;SDS011;38381;53.688;10.776;2023-04-03T06:09:16;5.45;;;3.58;;
52468;SDS011;38381;53.688;10.776;2023-04-03T06:14:16;5.20;;;4.45;;
52468;SDS011;38381;53.688;10.776;2023-04-03T06:19:17;7.45;;;5.85;;
52468;SDS011;38381;53.688;10.776;2023-04-03T06:24:18;9.45;;;3.95;;
52468;SDS011;38381;53.688;10.776;2023-04-03T06:29:20;7.07;;;3.77;;
52468;SDS011;38381;53.688;10.776;2023-04-03T06:34:21;5.63;;;3.70;;
52468;SDS011;38381;53.688;10.776;2023-04-03T06:39:21;3.08;;;2.75;;
52468;SDS011;38381;53.688;10.776;2023-04-03T06:44:25;3.35;;;3.05;;
52468;SDS011;38381;53.688;10.776;2023-04-03T06:49:26;5.18;;;4.05;;
52468;SDS011;38381;53.688;10.776;2023-04-03T06:54:26;3.85;;;2.80;;
52468;SDS011;38381;53.688;10.776;2023-04-03T06:59:27;5.05;;;3.88;;
52468;SDS011;38381;53.688;10.776;2023-04-03T07:04:27;3.15;;;2.85;;
52468;SDS011;38381;53.688;10.776;2023-04-03T07:09:28;3.00;;;2.50;;
52468;SDS011;38381;53.688;10.776;2023-04-03T07:14:28;2.53;;;2.33;;
52468;SDS011;38381;53.688;10.776;2023-04-03T07:19:29;4.03;;;2.60;;
52468;SDS011;38381;53.688;10.776;2023-04-03T07:24:30;2.53;;;2.33;;
52468;SDS011;38381;53.688;10.776;2023-04-03T07:29:31;3.50;;;2.67;;
52468;SDS011;38381;53.688;10.776;2023-04-03T07:34:32;2.67;;;2.08;;
52468;SDS011;38381;53.688;10.776;2023-04-03T07:39:32;2.67;;;2.30;;
52468;SDS011;38381;53.688;10.776;2023-04-03T07:44:33;3.70;;;2.50;;
52468;SDS011;38381;53.688;10.776;2023-04-03T07:49:33;3.08;;;2.13;;
52468;SDS011;38381;53.688;10.776;2023-04-03T07:54:38;2.72;;;2.40;;
52468;SDS011;38381;53.688;10.776;2023-04-03T07:59:39;4.40;;;2.28;;
52468;SDS011;38381;53.688;10.776;2023-04-03T08:04:41;5.53;;;2.28;;
52468;SDS011;38381;53.688;10.776;2023-04-03T08:09:41;4.00;;;2.67;;
52468;SDS011;38381;53.688;10.776;2023-04-03T08:14:42;2.60;;;2.40;;
52468;SDS011;38381;53.688;10.776;2023-04-03T08:19:42;2.85;;;2.20;;
52468;SDS011;38381;53.688;10.776;2023-04-03T08:24:42;5.22;;;2.25;;
52468;SDS011;38381;53.688;10.776;2023-04-03T08:29:43;3.25;;;2.00;;
52468;SDS011;38381;53.688;10.776;2023-04-03T08:34:43;2.95;;;2.20;;
52468;SDS011;38381;53.688;10.776;2023-04-03T08:39:44;3.63;;;2.10;;
52468;SDS011;38381;53.688;10.776;2023-04-03T08:50:12;6.22;;;2.22;;
52468;SDS011;38381;53.688;10.776;2023-04-03T09:00:51;3.70;;;2.03;;
52468;SDS011;38381;53.688;10.776;2023-04-03T09:06:00;6.03;;;2.95;;
52468;SDS011;38381;53.688;10.776;2023-04-03T09:11:24;2.05;;;1.88;;
52468;SDS011;38381;53.688;10.776;2023-04-03T09:16:49;3.85;;;2.30;;
52468;SDS011;38381;53.688;10.776;2023-04-03T09:21:56;3.72;;;2.20;;
52468;SDS011;38381;53.688;10.776;2023-04-03T09:26:58;4.22;;;1.63;;
52468;SDS011;38381;53.688;10.776;2023-04-03T09:32:12;4.05;;;2.20;;
52468;SDS011;38381;53.688;10.776;2023-04-03T09:42:38;3.58;;;1.85;;
52468;SDS011;38381;53.688;10.776;2023-04-03T09:47:42;3.40;;;1.70;;
52468;SDS011;38381;53.688;10.776;2023-04-03T09:52:48;4.35;;;1.40;;
52468;SDS011;38381;53.688;10.776;2023-04-03T09:57:53;2.72;;;1.85;;
52468;SDS011;38381;53.688;10.776;2023-04-03T10:02:54;2.33;;;1.90;;
52468;SDS011;38381;53.688;10.776;2023-04-03T10:08:38;2.80;;;1.87;;
52468;SDS011;38381;53.688;10.776;2023-04-03T10:13:23;1.50;;;1.40;;
52468;SDS011;38381;53.688;10.776;2023-04-03T10:24:00;3.53;;;1.63;;
52468;SDS011;38381;53.688;10.776;2023-04-03T10:34:23;2.17;;;1.27;;
52468;SDS011;38381;53.688;10.776;2023-04-03T10:39:30;4.95;;;2.13;;
52468;SDS011;38381;53.688;10.776;2023-04-03T10:44:37;2.28;;;1.90;;
52468;SDS011;38381;53.688;10.776;2023-04-03T10:49:56;1.77;;;1.65;;
52468;SDS011;38381;53.688;10.776;2023-04-03T11:05:42;4.43;;;2.65;;
52468;SDS011;38381;53.688;10.776;2023-04-03T11:10:46;2.22;;;1.35;;
52468;SDS011;38381;53.688;10.776;2023-04-03T11:15:51;5.22;;;1.67;;
52468;SDS011;38381;53.688;10.776;2023-04-03T11:21:02;1.98;;;1.70;;
52468;SDS011;38381;53.688;10.776;2023-04-03T11:36:53;4.25;;;1.73;;
52468;SDS011;38381;53.688;10.776;2023-04-03T12:02:59;1.50;;;1.40;;
52468;SDS011;38381;53.688;10.776;2023-04-03T12:13:29;1.40;;;1.30;;
52468;SDS011;38381;53.688;10.776;2023-04-03T12:40:16;7.32;;;1.83;;
52468;SDS011;38381;53.688;10.776;2023-04-03T12:45:25;1.92;;;1.70;;
52468;SDS011;38381;53.688;10.776;2023-04-03T12:50:30;2.22;;;1.65;;
52468;SDS011;38381;53.688;10.776;2023-04-03T12:55:33;2.50;;;1.67;;
52468;SDS011;38381;53.688;10.776;2023-04-03T13:00:34;2.03;;;1.45;;
52468;SDS011;38381;53.688;10.776;2023-04-03T13:05:35;3.22;;;1.65;;
52468;SDS011;38381;53.688;10.776;2023-04-03T13:10:59;3.25;;;1.75;;
52468;SDS011;38381;53.688;10.776;2023-04-03T13:16:07;2.00;;;1.70;;
52468;SDS011;38381;53.688;10.776;2023-04-03T13:21:15;2.45;;;1.80;;
52468;SDS011;38381;53.688;10.776;2023-04-03T13:26:20;2.45;;;2.00;;
52468;SDS011;38381;53.688;10.776;2023-04-03T13:31:26;2.47;;;1.50;;
52468;SDS011;38381;53.688;10.776;2023-04-03T13:36:31;1.60;;;1.50;;
52468;SDS011;38381;53.688;10.776;2023-04-03T13:41:38;1.48;;;1.38;;
52468;SDS011;38381;53.688;10.776;2023-04-03T13:46:40;2.25;;;2.03;;
52468;SDS011;38381;53.688;10.776;2023-04-03T13:51:41;2.63;;;1.98;;
52468;SDS011;38381;53.688;10.776;2023-04-03T13:56:41;2.58;;;1.60;;
52468;SDS011;38381;53.688;10.776;2023-04-03T14:01:46;1.65;;;1.55;;
52468;SDS011;38381;53.688;10.776;2023-04-03T14:07:13;4.45;;;2.28;;
52468;SDS011;38381;53.688;10.776;2023-04-03T14:12:24;3.55;;;1.90;;
52468;SDS011;38381;53.688;10.776;2023-04-03T14:17:28;2.50;;;2.30;;
52468;SDS011;38381;53.688;10.776;2023-04-03T14:22:30;2.17;;;1.52;;
52468;SDS011;38381;53.688;10.776;2023-04-03T14:27:37;2.28;;;1.67;;
52468;SDS011;38381;53.688;10.776;2023-04-03T14:32:39;1.58;;;1.48;;
52468;SDS011;38381;53.688;10.776;2023-04-03T14:37:40;3.47;;;2.35;;
52468;SDS011;38381;53.688;10.776;2023-04-03T14:42:41;3.53;;;2.08;;
52468;SDS011;38381;53.688;10.776;2023-04-03T14:47:44;5.55;;;1.90;;
52468;SDS011;38381;53.688;10.776;2023-04-03T14:52:49;2.97;;;1.85;;
52468;SDS011;38381;53.688;10.776;2023-04-03T14:57:52;4.65;;;1.90;;
52468;SDS011;38381;53.688;10.776;2023-04-03T15:02:53;2.28;;;1.80;;
52468;SDS011;38381;53.688;10.776;2023-04-03T15:07:54;2.00;;;1.80;;
52468;SDS011;38381;53.688;10.776;2023-04-03T15:12:56;3.42;;;2.20;;
52468;SDS011;38381;53.688;10.776;2023-04-03T15:17:57;3.67;;;1.70;;
52468;SDS011;38381;53.688;10.776;2023-04-03T15:22:58;3.40;;;2.05;;
52468;SDS011;38381;53.688;10.776;2023-04-03T15:28:01;2.45;;;1.70;;
52468;SDS011;38381;53.688;10.776;2023-04-03T15:33:01;4.40;;;2.08;;
52468;SDS011;38381;53.688;10.776;2023-04-03T15:38:02;2.72;;;1.98;;
52468;SDS011;38381;53.688;10.776;2023-04-03T15:43:02;2.40;;;2.20;;
52468;SDS011;38381;53.688;10.776;2023-04-03T15:48:04;2.47;;;1.90;;
52468;SDS011;38381;53.688;10.776;2023-04-03T15:53:06;3.13;;;2.08;;
52468;SDS011;38381;53.688;10.776;2023-04-03T15:58:07;4.63;;;3.10;;
52468;SDS011;38381;53.688;10.776;2023-04-03T16:03:09;2.72;;;2.17;;
52468;SDS011;38381;53.688;10.776;2023-04-03T16:08:13;3.05;;;2.03;;
52468;SDS011;38381;53.688;10.776;2023-04-03T16:13:14;3.03;;;2.20;;
52468;SDS011;38381;53.688;10.776;2023-04-03T16:18:15;3.38;;;2.35;;
52468;SDS011;38381;53.688;10.776;2023-04-03T16:23:15;2.15;;;1.80;;
52468;SDS011;38381;53.688;10.776;2023-04-03T16:28:16;4.43;;;2.10;;
52468;SDS011;38381;53.688;10.776;2023-04-03T16:33:18;1.80;;;1.67;;
52468;SDS011;38381;53.688;10.776;2023-04-03T16:38:21;2.95;;;1.92;;
52468;SDS011;38381;53.688;10.776;2023-04-03T16:43:22;5.53;;;2.22;;
52468;SDS011;38381;53.688;10.776;2023-04-03T16:48:23;2.83;;;1.63;;
52468;SDS011;38381;53.688;10.776;2023-04-03T16:53:23;4.88;;;2.15;;
52468;SDS011;38381;53.688;10.776;2023-04-03T16:58:25;5.43;;;2.42;;
52468;SDS011;38381;53.688;10.776;2023-04-03T17:03:25;4.65;;;1.98;;
52468;SDS011;38381;53.688;10.776;2023-04-03T17:08:28;2.20;;;2.00;;
52468;SDS011;38381;53.688;10.776;2023-04-03T17:13:28;4.28;;;2.55;;
52468;SDS011;38381;53.688;10.776;2023-04-03T17:18:32;2.60;;;2.38;;
52468;SDS011;38381;53.688;10.776;2023-04-03T17:23:33;4.38;;;2.38;;
52468;SDS011;38381;53.688;10.776;2023-04-03T17:28:36;5.47;;;2.65;;
52468;SDS011;38381;53.688;10.776;2023-04-03T17:33:38;5.33;;;3.83;;
52468;SDS011;38381;53.688;10.776;2023-04-03T17:38:38;4.28;;;2.65;;
52468;SDS011;38381;53.688;10.776;2023-04-03T17:43:39;2.92;;;2.42;;
52468;SDS011;38381;53.688;10.776;2023-04-03T17:48:40;2.67;;;2.47;;
52468;SDS011;38381;53.688;10.776;2023-04-03T17:53:40;5.60;;;2.55;;
52468;SDS011;38381;53.688;10.776;2023-04-03T17:58:41;2.65;;;2.30;;
52468;SDS011;38381;53.688;10.776;2023-04-03T18:03:43;2.47;;;2.17;;
52468;SDS011;38381;53.688;10.776;2023-04-03T18:08:46;4.35;;;2.70;;
52468;SDS011;38381;53.688;10.776;2023-04-03T18:13:49;2.35;;;2.08;;
52468;SDS011;38381;53.688;10.776;2023-04-03T18:18:51;6.38;;;2.45;;
52468;SDS011;38381;53.688;10.776;2023-04-03T18:23:52;3.03;;;2.80;;
52468;SDS011;38381;53.688;10.776;2023-04-03T18:28:56;3.67;;;3.22;;
52468;SDS011;38381;53.688;10.776;2023-04-03T18:34:00;3.80;;;2.97;;
52468;SDS011;38381;53.688;10.776;2023-04-03T18:39:00;4.57;;;3.25;;
52468;SDS011;38381;53.688;10.776;2023-04-03T18:44:01;5.57;;;4.63;;
52468;SDS011;38381;53.688;10.776;2023-04-03T18:49:04;6.35;;;3.22;;
52468;SDS011;38381;53.688;10.776;2023-04-03T18:54:05;4.43;;;4.03;;
52468;SDS011;38381;53.688;10.776;2023-04-03T18:59:08;8.27;;;4.07;;
52468;SDS011;38381;53.688;10.776;2023-04-03T19:04:09;3.50;;;2.67;;
52468;SDS011;38381;53.688;10.776;2023-04-03T19:09:09;4.15;;;2.80;;
52468;SDS011;38381;53.688;10.776;2023-04-03T19:14:10;4.63;;;2.65;;
52468;SDS011;38381;53.688;10.776;2023-04-03T19:19:10;2.72;;;2.53;;
52468;SDS011;38381;53.688;10.776;2023-04-03T19:24:12;3.83;;;2.53;;
52468;SDS011;38381;53.688;10.776;2023-04-03T19:29:12;9.57;;;4.15;;
52468;SDS011;38381;53.688;10.776;2023-04-03T19:34:13;7.50;;;3.20;;
52468;SDS011;38381;53.688;10.776;2023-04-03T19:39:13;4.05;;;2.80;;
52468;SDS011;38381;53.688;10.776;2023-04-03T19:44:14;3.10;;;2.78;;
52468;SDS011;38381;53.688;10.776;2023-04-03T19:49:14;4.38;;;2.50;;
52468;SDS011;38381;53.688;10.776;2023-04-03T19:54:15;3.58;;;2.60;;
52468;SDS011;38381;53.688;10.776;2023-04-03T19:59:16;3.83;;;2.85;;
52468;SDS011;38381;53.688;10.776;2023-04-03T20:04:16;3.95;;;2.78;;
52468;SDS011;38381;53.688;10.776;2023-04-03T20:09:17;3.33;;;2.90;;
52468;SDS011;38381;53.688;10.776;2023-04-03T20:14:17;3.53;;;3.17;;
52468;SDS011;38381;53.688;10.776;2023-04-03T20:19:18;3.40;;;3.10;;
52468;SDS011;38381;53.688;10.776;2023-04-03T20:24:20;5.27;;;2.97;;
52468;SDS011;38381;53.688;10.776;2023-04-03T20:29:20;5.22;;;3.33;;
52468;SDS011;38381;53.688;10.776;2023-04-03T20:34:21;3.13;;;2.50;;
52468;SDS011;38381;53.688;10.776;2023-04-03T20:39:21;4.07;;;3.30;;
52468;SDS011;38381;53.688;10.776;2023-04-03T20:44:23;3.35;;;2.88;;
52468;SDS011;38381;53.688;10.776;2023-04-03T20:49:24;2.67;;;2.47;;
52468;SDS011;38381;53.688;10.776;2023-04-03T20:54:24;2.50;;;2.30;;
52468;SDS011;38381;53.688;10.776;2023-04-03T20:59:25;4.80;;;2.38;;
52468;SDS011;38381;53.688;10.776;2023-04-03T21:04:31;4.35;;;3.70;;
52468;SDS011;38381;53.688;10.776;2023-04-03T21:20:48;7.50;;;3.90;;
52468;SDS011;38381;53.688;10.776;2023-04-03T21:25:49;4.90;;;3.65;;
52468;SDS011;38381;53.688;10.776;2023-04-03T21:30:49;5.03;;;3.42;;
52468;SDS011;38381;53.688;10.776;2023-04-03T21:35:50;7.53;;;4.70;;
52468;SDS011;38381;53.688;10.776;2023-04-03T21:40:56;4.47;;;3.00;;
52468;SDS011;38381;53.688;10.776;2023-04-03T21:45:57;2.92;;;2.72;;
52468;SDS011;38381;53.688;10.776;2023-04-03T21:51:05;4.47;;;2.92;;
52468;SDS011;38381;53.688;10.776;2023-04-03T21:56:05;4.38;;;2.97;;
52468;SDS011;38381;53.688;10.776;2023-04-03T22:01:06;3.33;;;3.10;;
52468;SDS011;38381;53.688;10.776;2023-04-03T22:06:11;3.40;;;3.13;;
52468;SDS011;38381;53.688;10.776;2023-04-03T22:11:14;3.50;;;3.20;;
52468;SDS011;38381;53.688;10.776;2023-04-03T22:16:15;3.50;;;3.17;;
52468;SDS011;38381;53.688;10.776;2023-04-03T22:21:15;4.05;;;2.90;;
52468;SDS011;38381;53.688;10.776;2023-04-03T22:26:16;3.28;;;2.97;;
52468;SDS011;38381;53.688;10.776;2023-04-03T22:31:16;5.45;;;3.08;;
52468;SDS011;38381;53.688;10.776;2023-04-03T22:36:17;4.30;;;3.88;;
52468;SDS011;38381;53.688;10.776;2023-04-03T22:41:18;3.83;;;2.88;;
52468;SDS011;38381;53.688;10.776;2023-04-03T22:46:18;3.63;;;3.33;;
52468;SDS011;38381;53.688;10.776;2023-04-03T22:51:19;3.75;;;3.25;;
52468;SDS011;38381;53.688;10.776;2023-04-03T22:56:20;4.82;;;2.95;;
52468;SDS011;38381;53.688;10.776;2023-04-03T23:01:20;4.05;;;2.70;;
52468;SDS011;38381;53.688;10.776;2023-04-03T23:06:23;3.22;;;2.92;;
52468;SDS011;38381;53.688;10.776;2023-04-03T23:11:23;4.70;;;3.10;;
52468;SDS011;38381;53.688;10.776;2023-04-03T23:16:23;4.55;;;2.60;;
52468;SDS011;38381;53.688;10.776;2023-04-03T23:21:24;2.65;;;2.45;;
52468;SDS011;38381;53.688;10.776;2023-04-03T23:26:25;3.40;;;3.10;;
52468;SDS011;38381;53.688;10.776;2023-04-03T23:31:25;3.42;;;2.90;;
52468;SDS011;38381;53.688;10.776;2023-04-03T23:36:26;4.32;;;3.20;;
52468;SDS011;38381;53.688;10.776;2023-04-03T23:41:26;3.78;;;2.63;;
52468;SDS011;38381;53.688;10.776;2023-04-03T23:46:27;3.08;;;2.83;;
52468;SDS011;38381;53.688;10.776;2023-04-03T23:51:27;3.38;;;3.10;;
52468;SDS011;38381;53.688;10.776;2023-04-03T23:56:28;2.80;;;2.60;;
